METAR Formatted Surface Weather Observation
Issued by NWS

Home | Current Version | Previous Version | Text Only | Print | Product List | Glossary On
Versions: 1 2 3 4 5 6 7 8 9 10
000
SAUS45 KPSR 201557
MTRFHU
METAR KFHU 201556Z AUTO 06004KT 10SM FEW046 24/18 A3013 RMK AO2
SLP144 T02440183 $



USA.gov is the U.S. government's official web portal to all federal, state and local government web resources and services.